Thalassa — FNFP — position and weather

sailwx.info

Track history (hours):
 
Tides and Currents Weather Stations Pressure Air Temp Water Temp Dewpoint Dewpoint Depression Visibility Wind Speed Wind Dir Waves Ship Positions

Oceanographic research ship Thalassa (France & Spain)

Detailed information on ship capabilities available from University of Delaware's Ocean Information Center.

Last reported at 2019-Sep-21 19:02 UTC. Time now 2019-Sep-22 01:33 UTC.
Position N 49°05' W 004°58'.

Length 74 m; beam 15 m.

Type: Other ship. MMSI: 227297000.

Date/timePositionNaut miles runAvg speedWind from/ knotsBaromVisibWave heightAir tempDewpointWater temp
2019-Sep-21 19:02N 49°05' W 004°58'1 2.7
2019-Sep-21 18:51N 49°05' W 004°59'1 1.5
2019-Sep-21 18:29N 49°06' W 004°59'0 0.2
2019-Sep-21 18:00N 49°06' W 004°60'0 0.2
2019-Sep-21 17:30N 49°06' W 004°60'1 0.6
2019-Sep-21 15:59N 49°05' W 004°58'1 1.4
2019-Sep-21 15:30N 49°06' W 004°59'0 0.0
2019-Sep-21 14:56N 49°06' W 004°59'1 2.7
2019-Sep-21 14:25N 49°05' W 005°01'2 4.1
2019-Sep-21 14:00N 49°04' W 005°03'510.3
2019-Sep-21 13:30N 49°00' W 004°58'510.6
2019-Sep-21 13:00N 48°56' W 004°53'510.2
2019-Sep-21 12:30N 48°52' W 004°48'1 1.5
2019-Sep-21 12:00N 48°52' W 004°47'2 3.2
2019-Sep-21 11:30N 48°53' W 004°45'2 3.9
2019-Sep-21 10:52N 48°54' W 004°42'510.0
2019-Sep-21 10:20N 48°53' W 004°34'4 9.5
2019-Sep-21 09:52N 48°52' W 004°27'1 2.7
2019-Sep-21 09:30N 48°52' W 004°26'2 3.2
2019-Sep-21 08:58N 48°52' W 004°23'1 1.3
2019-Sep-21 08:17N 48°52' W 004°22'0 1.3
2019-Sep-21 07:59N 48°52' W 004°23'4 8.4
2019-Sep-21 07:28N 48°51' W 004°16'4 9.4
2019-Sep-21 07:00N 48°49' W 004°10'2 3.9
2019-Sep-21 06:29N 48°48' W 004°07'1 2.4
2019-Sep-21 06:00N 48°48' W 004°06'0 0.9
2019-Sep-21 05:30N 48°48' W 004°06'0 0.2
2019-Sep-21 04:58N 48°48' W 004°06'0 0.7
2019-Sep-21 04:30N 48°48' W 004°07'1 1.2
2019-Sep-21 04:00N 48°48' W 004°08'1 1.2
2019-Sep-21 03:30N 48°48' W 004°08'0 0.6
2019-Sep-21 03:00N 48°48' W 004°08'3 5.3
2019-Sep-21 02:30N 48°51' W 004°07'2 3.8
2019-Sep-21 02:00N 48°52' W 004°06'2 3.4
2019-Sep-21 01:30N 48°54' W 004°04'2 3.6
2019-Sep-21 00:56N 48°56' W 004°03'2 4.1
2019-Sep-21 00:30N 48°57' W 004°01'2 4.1
2019-Sep-21 00:00N 48°59' W 003°59'2 3.8
2019-Sep-20 23:30N 49°00' W 003°58'2 3.8
2019-Sep-20 23:00N 49°02' W 003°56'1 2.7
2019-Sep-20 22:30N 49°03' W 003°58'2 3.6
2019-Sep-20 22:00N 49°03' W 003°56'2 3.8
2019-Sep-20 21:30N 49°02' W 003°58'2 3.7
2019-Sep-20 21:00N 49°03' W 003°55'2 3.7
2019-Sep-20 20:30N 49°02' W 003°58'2 3.0
2019-Sep-20 20:00N 49°03' W 003°56'2 4.2
2019-Sep-20 19:30N 49°04' W 003°53'1 2.1
2019-Sep-20 19:00N 49°03' W 003°54'2 3.5
2019-Sep-20 18:30N 49°03' W 003°57'0 0.9
2019-Sep-20 18:00N 49°03' W 003°56'1 1.2
2019-Sep-20 17:30N 49°03' W 003°57'2 3.0
2019-Sep-20 17:00N 49°04' W 003°55'1 1.3
2019-Sep-20 16:30N 49°03' W 003°56'2 3.5
2019-Sep-20 16:00N 49°02' W 003°58'3 5.7
2019-Sep-20 15:28N 49°02' W 004°03'3 7.1
2019-Sep-20 15:00N 49°01' W 004°08'4 6.5
2019-Sep-20 14:27N 49°01' W 004°13'1 1.5
2019-Sep-20 13:59N 49°01' W 004°14'0 0.9
2019-Sep-20 13:29N 49°00' W 004°14'1 2.6
2019-Sep-20 13:00N 48°60' W 004°15'13 7.8
2019-Sep-20 11:17N 49°12' W 004°22'2 9.1
2019-Sep-20 11:00N 49°15' W 004°23'5 9.2
2019-Sep-20 10:29N 49°20' W 004°24'2 3.5
2019-Sep-20 09:54N 49°21' W 004°25'8 4.8
2019-Sep-20 08:19N 49°29' W 004°22'9 9.1
2019-Sep-20 07:16N 49°38' W 004°22'1 3.9
2019-Sep-20 07:00N 49°39' W 004°23'2 0.2
2019-Sep-19 23:46N 49°39' W 004°25'0 0.3
2019-Sep-19 23:23N 49°39' W 004°25'1 2.6
2019-Sep-19 23:00N 49°39' W 004°24'2 3.3
2019-Sep-19 22:30N 49°39' W 004°26'2 3.4
2019-Sep-19 22:00N 49°39' W 004°23'2 3.6
2019-Sep-19 21:26N 49°38' W 004°27'1 1.2
2019-Sep-19 20:58N 49°38' W 004°26'2 5.3
2019-Sep-19 20:30N 49°40' W 004°22'39 2.1
2019-Sep-19 02:23N 49°48' W 005°21'20 5.5
2019-Sep-18 22:51N 49°41' W 005°49'1 0.6
2019-Sep-18 20:49N 49°41' W 005°48'3 5.4
2019-Sep-18 20:19N 49°40' W 005°52'2 5.2
2019-Sep-18 19:58N 49°41' W 005°49'0 0.5
2019-Sep-18 19:09N 49°40' W 005°49'1 3.3
2019-Sep-18 18:57N 49°40' W 005°50'1 1.3
2019-Sep-18 18:30N 49°40' W 005°49'1 0.8
2019-Sep-18 17:15N 49°41' W 005°48'0 0.9
2019-Sep-18 16:58N 49°40' W 005°48'2 2.7
2019-Sep-18 16:07N 49°40' W 005°51'0 2.9
2019-Sep-18 15:58N 49°40' W 005°52'510.6
2019-Sep-18 15:30N 49°39' W 005°45'510.9
2019-Sep-18 15:00N 49°37' W 005°37'1 2.3
2019-Sep-18 14:30N 49°37' W 005°35'3 2.4
2019-Sep-18 13:15N 49°35' W 005°39'1 6.1
2019-Sep-18 13:00N 49°34' W 005°38'611.8
2019-Sep-18 12:30N 49°30' W 005°31'611.6
2019-Sep-18 12:00N 49°26' W 005°24'4 6.7
2019-Sep-18 11:27N 49°24' W 005°19'0 0.9
2019-Sep-18 11:00N 49°24' W 005°19'23 7.2
2019-Sep-18 07:45N 49°18' W 005°53'3 2.9
2019-Sep-18 06:46N 49°18' W 005°49'1 4.4
2019-Sep-18 06:29N 49°19' W 005°50'1 1.1
2019-Sep-18 05:57N 49°18' W 005°50'1 1.6
2019-Sep-18 05:23N 49°18' W 005°49'0 0.2
2019-Sep-18 04:59N 49°18' W 005°49'3 1.8
2019-Sep-18 03:33N 49°17' W 005°53'0 0.1
2019-Sep-18 03:24N 49°17' W 005°53'1 1.3
2019-Sep-18 03:00N 49°17' W 005°52'3 6.6
2019-Sep-18 02:30N 49°16' W 005°47'3 6.8
2019-Sep-18 02:00N 49°16' W 005°42'4 7.2
2019-Sep-18 01:30N 49°15' W 005°37'4 8.1
2019-Sep-18 01:00N 49°14' W 005°31'5 9.3
2019-Sep-18 00:26N 49°13' W 005°23'1 2.3
2019-Sep-17 23:58N 49°13' W 005°22'2 4.3
2019-Sep-17 23:30N 49°11' W 005°23'2 3.1
2019-Sep-17 22:58N 49°13' W 005°22'1 3.2
2019-Sep-17 22:30N 49°11' W 005°23'2 3.2
2019-Sep-17 21:50N 49°13' W 005°20'2 5.9
2019-Sep-17 21:30N 49°11' W 005°22'1 1.4
2019-Sep-17 21:00N 49°12' W 005°21'2 3.5
2019-Sep-17 20:30N 49°13' W 005°19'2 2.9
2019-Sep-17 19:59N 49°12' W 005°21'0 0.8
2019-Sep-17 19:26N 49°12' W 005°22'0 0.8
2019-Sep-17 18:58N 49°12' W 005°22'1 2.9
2019-Sep-17 18:28N 49°12' W 005°24'1 1.3
2019-Sep-17 17:49N 49°11' W 005°25'1 1.8
2019-Sep-17 17:09N 49°11' W 005°23'0 1.6
2019-Sep-17 16:58N 49°11' W 005°23'2 3.1
2019-Sep-17 16:28N 49°12' W 005°21'6 7.3
2019-Sep-17 15:36N 49°06' W 005°22'110.4
2019-Sep-17 15:30N 49°05' W 005°22'510.1
2019-Sep-17 15:00N 48°60' W 005°22'4 8.7
2019-Sep-17 14:30N 48°56' W 005°22'2 3.3
2019-Sep-17 13:53N 48°54' W 005°22'2 1.8
2019-Sep-17 12:52N 48°53' W 005°24'9 7.9
2019-Sep-17 11:42N 48°50' W 005°38'7 5.4
2019-Sep-17 10:21N 48°48' W 005°48'1 2.4
2019-Sep-17 09:53N 48°49' W 005°47'3 3.8
2019-Sep-17 09:08N 48°49' W 005°43'2310.2
2019-Sep-17 06:51N 48°35' W 005°15'410.4
2019-Sep-17 06:30N 48°33' W 005°10'510.4
2019-Sep-17 06:00N 48°30' W 005°04'2 3.8
2019-Sep-17 05:30N 48°28' W 005°03'0 0.1
2019-Sep-17 05:00N 48°28' W 005°03'1 1.9
2019-Sep-17 04:30N 48°28' W 005°01'0 0.9
2019-Sep-17 04:00N 48°28' W 005°01'0 0.2
2019-Sep-17 03:30N 48°28' W 005°00'0 0.4
2019-Sep-17 03:00N 48°29' W 005°00'1 1.5
2019-Sep-17 02:30N 48°29' W 005°01'1 1.9
2019-Sep-17 02:00N 48°30' W 005°01'1 1.6
2019-Sep-17 01:30N 48°31' W 005°02'1 1.5
2019-Sep-17 01:00N 48°32' W 005°02'1 1.6
2019-Sep-17 00:30N 48°32' W 005°03'1 2.8
2019-Sep-17 00:00N 48°33' W 005°04'1 2.7
2019-Sep-16 23:30N 48°34' W 005°05'1 2.2
2019-Sep-16 23:00N 48°35' W 005°06'1 1.5
2019-Sep-16 22:30N 48°36' W 005°07'1 2.0
2019-Sep-16 22:00N 48°37' W 005°08'2 3.1
2019-Sep-16 21:30N 48°38' W 005°09'2 3.4
2019-Sep-16 21:00N 48°39' W 005°12'2 3.6
2019-Sep-16 20:30N 48°39' W 005°14'1 1.2
2019-Sep-16 20:00N 48°40' W 005°15'0 0.4
2019-Sep-16 19:30N 48°40' W 005°15'0 0.6
2019-Sep-16 19:00N 48°40' W 005°15'3 5.5
2019-Sep-16 18:30N 48°41' W 005°19'2 4.5
2019-Sep-16 18:00N 48°42' W 005°22'1 1.6
2019-Sep-16 17:30N 48°42' W 005°23'1 1.8
2019-Sep-16 17:00N 48°41' W 005°24'0 0.8
2019-Sep-16 16:30N 48°41' W 005°25'0 0.5
2019-Sep-16 16:00N 48°41' W 005°25'1 2.0
2019-Sep-16 15:30N 48°40' W 005°24'1 1.1
2019-Sep-16 15:00N 48°39' W 005°24'0 0.3
2019-Sep-16 14:30N 48°39' W 005°24'1 1.6
2019-Sep-16 14:00N 48°39' W 005°23'2 3.5
2019-Sep-16 13:30N 48°40' W 005°21'3 5.1
2019-Sep-16 13:00N 48°38' W 005°21'5 9.7
2019-Sep-16 12:30N 48°33' W 005°23'5 8.9
2019-Sep-16 12:00N 48°28' W 005°23'4 8.6
2019-Sep-16 11:30N 48°24' W 005°23'3 5.7
2019-Sep-16 11:00N 48°21' W 005°23'1 1.6
2019-Sep-16 10:30N 48°22' W 005°23'0 0.7
2019-Sep-16 10:00N 48°22' W 005°22'4 8.2
2019-Sep-16 09:30N 48°21' W 005°16'5 9.2
2019-Sep-16 09:00N 48°20' W 005°09'5 9.1
2019-Sep-16 08:30N 48°19' W 005°03'5 9.5
2019-Sep-16 08:00N 48°18' W 004°56'510.3
2019-Sep-16 07:30N 48°17' W 004°48'510.9
2019-Sep-16 07:00N 48°19' W 004°40'612.1
2019-Sep-16 06:30N 48°21' W 004°32'3 5.5
2019-Sep-16 06:00N 48°23' W 004°29'0 0.0
2019-Sep-16 05:30N 48°23' W 004°29'0 0.0
2019-Sep-16 05:00N 48°23' W 004°29'0 0.0
2019-Sep-16 04:30N 48°23' W 004°29'0 0.0
2019-Sep-16 04:00N 48°23' W 004°29'0 0.0
2019-Sep-16 03:30N 48°23' W 004°29'0 0.0
2019-Sep-16 03:00N 48°23' W 004°29'0 0.0
2019-Sep-16 02:30N 48°23' W 004°29'0 0.0
2019-Sep-16 02:00N 48°23' W 004°29'0 0.0
2019-Sep-16 01:30N 48°23' W 004°29'0 0.0
2019-Sep-16 01:00N 48°23' W 004°29'0 0.0
2019-Sep-16 00:30N 48°23' W 004°29'0 0.0
2019-Sep-16 00:00N 48°23' W 004°29'0 0.0
2019-Sep-15 23:30N 48°23' W 004°29'0 0.0
2019-Sep-15 23:00N 48°23' W 004°29'0 0.0
2019-Sep-15 22:30N 48°23' W 004°29'0 0.0
2019-Sep-15 22:00N 48°23' W 004°29'0 0.0
2019-Sep-15 21:30N 48°23' W 004°29'0 0.0
2019-Sep-15 21:00N 48°23' W 004°29'0 0.0
2019-Sep-15 20:30N 48°23' W 004°29'0 0.0
2019-Sep-15 20:00N 48°23' W 004°29'0 0.0
2019-Sep-15 19:30N 48°23' W 004°29'0 0.0
2019-Sep-15 19:00N 48°23' W 004°29'0 0.0
2019-Sep-15 18:30N 48°23' W 004°29'0 0.0
2019-Sep-15 18:00N 48°23' W 004°29'0 0.0
2019-Sep-15 17:30N 48°23' W 004°29'0 0.0
2019-Sep-15 17:00N 48°23' W 004°29'0 0.0
2019-Sep-15 16:30N 48°23' W 004°29'0 0.0
2019-Sep-15 16:00N 48°23' W 004°29'0 0.0
2019-Sep-15 15:30N 48°23' W 004°29'0 0.0
2019-Sep-15 15:00N 48°23' W 004°29'0 0.0
2019-Sep-15 14:30N 48°23' W 004°29'0 0.0
2019-Sep-15 14:00N 48°23' W 004°29'0 0.0
2019-Sep-15 13:30N 48°23' W 004°29'0 0.0
2019-Sep-15 13:00N 48°23' W 004°29'0 0.0
2019-Sep-15 12:30N 48°23' W 004°29'0 0.0
2019-Sep-15 12:00N 48°23' W 004°29'0 0.0
2019-Sep-15 11:30N 48°23' W 004°29'0 0.0
2019-Sep-15 11:00N 48°23' W 004°29'0 0.0
2019-Sep-15 10:30N 48°23' W 004°29'0 0.0
2019-Sep-15 10:00N 48°23' W 004°29'0 0.0
2019-Sep-15 09:30N 48°23' W 004°29'0 0.0
2019-Sep-15 09:00N 48°23' W 004°29'0 0.0
2019-Sep-15 08:30N 48°23' W 004°29'0 0.0
2019-Sep-15 08:00N 48°23' W 004°29'0 0.0
2019-Sep-15 07:30N 48°23' W 004°29'0 0.0
2019-Sep-15 07:00N 48°23' W 004°29'0 0.0
2019-Sep-15 06:30N 48°23' W 004°29'0 0.0
2019-Sep-15 06:00N 48°23' W 004°29'0 0.0
2019-Sep-15 05:30N 48°23' W 004°29'0 0.0
2019-Sep-15 05:00N 48°23' W 004°29'0 0.0
2019-Sep-15 04:30N 48°23' W 004°29'0 0.0
2019-Sep-15 04:00N 48°23' W 004°29'0 0.0
2019-Sep-15 03:30N 48°23' W 004°29'0 0.0
2019-Sep-15 03:00N 48°23' W 004°29'0 0.0
2019-Sep-15 02:30N 48°23' W 004°29'0 0.0
2019-Sep-15 02:00N 48°23' W 004°29'0 0.0
2019-Sep-15 01:30N 48°23' W 004°29'0 0.0
2019-Sep-15 01:00N 48°23' W 004°29'0 0.0
2019-Sep-15 00:30N 48°23' W 004°29'0 0.0
2019-Sep-15 00:00N 48°23' W 004°29'0 0.0
2019-Sep-14 23:30N 48°23' W 004°29'0 0.0
2019-Sep-14 23:00N 48°23' W 004°29'0 0.0
2019-Sep-14 22:30N 48°23' W 004°29'0 0.0
2019-Sep-14 22:00N 48°23' W 004°29'0 0.0
2019-Sep-14 21:30N 48°23' W 004°29'0 0.0
2019-Sep-14 21:00N 48°23' W 004°29'0 0.0
2019-Sep-14 20:30N 48°23' W 004°29'0 0.0
2019-Sep-14 20:00N 48°23' W 004°29'0 0.0
2019-Sep-14 19:30N 48°23' W 004°29'0 0.0
2019-Sep-14 19:00N 48°23' W 004°29'0 0.0
2019-Sep-14 18:30N 48°23' W 004°29'0 0.0
2019-Sep-14 18:00N 48°23' W 004°29'0 0.0
2019-Sep-14 17:30N 48°23' W 004°29'0 0.0
2019-Sep-14 17:00N 48°23' W 004°29'0 0.0
2019-Sep-14 16:30N 48°23' W 004°29'0 0.0
2019-Sep-14 16:00N 48°23' W 004°29'0 0.0
2019-Sep-14 15:30N 48°23' W 004°29'0 0.0
2019-Sep-14 15:00N 48°23' W 004°29'0 0.0
2019-Sep-14 14:30N 48°23' W 004°29'0 0.0
2019-Sep-14 14:00N 48°23' W 004°29'0 0.0
2019-Sep-14 13:30N 48°23' W 004°29'0 0.0
2019-Sep-14 13:00N 48°23' W 004°29'0 0.0
2019-Sep-14 12:30N 48°23' W 004°29'0 0.0
2019-Sep-14 12:00N 48°23' W 004°29'0 0.0
2019-Sep-14 11:30N 48°23' W 004°29'0 0.0
2019-Sep-14 11:00N 48°23' W 004°29'0 0.0
2019-Sep-14 10:30N 48°23' W 004°29'0 0.0
2019-Sep-14 10:00N 48°23' W 004°29'0 0.0
2019-Sep-14 09:30N 48°23' W 004°29'0 0.0
2019-Sep-14 09:00N 48°23' W 004°29'0 0.0
2019-Sep-14 08:30N 48°23' W 004°29'0 0.0
2019-Sep-14 08:00N 48°23' W 004°29'0 0.0
2019-Sep-14 07:30N 48°23' W 004°29'0 0.0
2019-Sep-14 07:00N 48°23' W 004°29'0 0.0
2019-Sep-14 06:30N 48°23' W 004°29'0 0.0
2019-Sep-14 06:00N 48°23' W 004°29'0 0.0
2019-Sep-14 05:30N 48°23' W 004°29'0 0.0
2019-Sep-14 05:00N 48°23' W 004°29'0 0.0
2019-Sep-14 04:30N 48°23' W 004°29'0 0.0
2019-Sep-14 04:00N 48°23' W 004°29'0 0.0
2019-Sep-14 03:30N 48°23' W 004°29'0 0.0
2019-Sep-14 03:00N 48°23' W 004°29'0 0.0
2019-Sep-14 02:30N 48°23' W 004°29'0 0.0
2019-Sep-14 02:00N 48°23' W 004°29'0 0.0
2019-Sep-14 01:30N 48°23' W 004°29'0 0.0
2019-Sep-14 01:00N 48°23' W 004°29'0 0.0
2019-Sep-14 00:30N 48°23' W 004°29'0 0.0
2019-Sep-14 00:00N 48°23' W 004°29'0 0.0
2019-Sep-13 23:27N 48°23' W 004°29'0 0.0
2019-Sep-13 23:00N 48°23' W 004°29'0 0.0
2019-Sep-13 22:30N 48°23' W 004°29'0 0.0
2019-Sep-13 22:00N 48°23' W 004°29'0 0.0
2019-Sep-13 21:30N 48°23' W 004°29'0 0.0
2019-Sep-13 21:00N 48°23' W 004°29'0 0.0
2019-Sep-13 20:29N 48°23' W 004°29'0 0.0
2019-Sep-13 19:59N 48°23' W 004°29'0 0.0
2019-Sep-13 19:29N 48°23' W 004°29'0 0.0
2019-Sep-13 18:59N 48°23' W 004°29'0 0.0
2019-Sep-13 18:29N 48°23' W 004°29'0 0.0
2019-Sep-13 17:59N 48°23' W 004°29'0 0.0
2019-Sep-13 17:29N 48°23' W 004°29'0 0.0
2019-Sep-13 16:59N 48°23' W 004°29'0 0.0
2019-Sep-13 16:29N 48°23' W 004°29'0 0.0
2019-Sep-13 15:59N 48°23' W 004°29'0 0.0
2019-Sep-13 15:29N 48°23' W 004°29'0 0.0
2019-Sep-13 14:59N 48°23' W 004°29'0 0.0
2019-Sep-13 14:29N 48°23' W 004°29'0 1.0
2019-Sep-13 14:00N 48°23' W 004°29'2 3.9
2019-Sep-13 13:30N 48°21' W 004°31'5 9.9
2019-Sep-13 13:00N 48°19' W 004°38'612.0
2019-Sep-13 12:30N 48°16' W 004°45'611.6
2019-Sep-13 12:00N 48°10' W 004°45'612.0
2019-Sep-13 11:31N 48°04' W 004°46'612.4
2019-Sep-13 11:00N 47°58' W 004°49'611.4
2019-Sep-13 10:30N 47°54' W 004°54'611.2
2019-Sep-13 10:00N 47°49' W 004°59'611.2
2019-Sep-13 09:29N 47°44' W 005°04'610.6
2019-Sep-13 08:56N 47°40' W 005°10'610.6
2019-Sep-13 08:23N 47°35' W 005°15'810.5
2019-Sep-13 07:35N 47°28' W 005°22'410.5
2019-Sep-13 07:12N 47°25' W 005°26'210.3
2019-Sep-13 06:58N 47°23' W 005°28'510.1
2019-Sep-13 06:31N 47°19' W 005°32'510.2
2019-Sep-13 06:00N 47°15' W 005°36'510.5
2019-Sep-13 05:30N 47°11' W 005°41'611.5
2019-Sep-13 05:00N 47°06' W 005°46'1011.9
2019-Sep-13 04:11N 46°58' W 005°54'2311.3
2019-Sep-13 02:07N 46°39' W 006°15'911.2
2019-Sep-13 01:19N 46°32' W 006°22'511.4
2019-Sep-13 00:53N 46°28' W 006°27'  
Track history (hours):
 
Tides and Currents Weather Stations Pressure Air Temp Water Temp Dewpoint Dewpoint Depression Visibility Wind Speed Wind Dir Waves Ship Positions

Oceanographic research ship Thalassa (France & Spain)

Detailed information on ship capabilities available from University of Delaware's Ocean Information Center.

Last reported at 2019-Sep-21 19:02 UTC. Time now 2019-Sep-22 01:33 UTC.
Position N 49°05' W 004°58'.

Length 74 m; beam 15 m.

Type: Other ship. MMSI: 227297000.

Date/timePositionNaut miles runAvg speedWind from/ knotsBaromVisibWave heightAir tempDewpointWater temp
2019-Sep-21 19:02N 49°05' W 004°58'1 2.7
2019-Sep-21 18:51N 49°05' W 004°59'1 1.5
2019-Sep-21 18:29N 49°06' W 004°59'0 0.2
2019-Sep-21 18:00N 49°06' W 004°60'0 0.2
2019-Sep-21 17:30N 49°06' W 004°60'1 0.6
2019-Sep-21 15:59N 49°05' W 004°58'1 1.4
2019-Sep-21 15:30N 49°06' W 004°59'0 0.0
2019-Sep-21 14:56N 49°06' W 004°59'1 2.7
2019-Sep-21 14:25N 49°05' W 005°01'2 4.1
2019-Sep-21 14:00N 49°04' W 005°03'510.3
2019-Sep-21 13:30N 49°00' W 004°58'510.6
2019-Sep-21 13:00N 48°56' W 004°53'510.2
2019-Sep-21 12:30N 48°52' W 004°48'1 1.5
2019-Sep-21 12:00N 48°52' W 004°47'2 3.2
2019-Sep-21 11:30N 48°53' W 004°45'2 3.9
2019-Sep-21 10:52N 48°54' W 004°42'510.0
2019-Sep-21 10:20N 48°53' W 004°34'4 9.5
2019-Sep-21 09:52N 48°52' W 004°27'1 2.7
2019-Sep-21 09:30N 48°52' W 004°26'2 3.2
2019-Sep-21 08:58N 48°52' W 004°23'1 1.3
2019-Sep-21 08:17N 48°52' W 004°22'0 1.3
2019-Sep-21 07:59N 48°52' W 004°23'4 8.4
2019-Sep-21 07:28N 48°51' W 004°16'4 9.4
2019-Sep-21 07:00N 48°49' W 004°10'2 3.9
2019-Sep-21 06:29N 48°48' W 004°07'1 2.4
2019-Sep-21 06:00N 48°48' W 004°06'0 0.9
2019-Sep-21 05:30N 48°48' W 004°06'0 0.2
2019-Sep-21 04:58N 48°48' W 004°06'0 0.7
2019-Sep-21 04:30N 48°48' W 004°07'1 1.2
2019-Sep-21 04:00N 48°48' W 004°08'1 1.2
2019-Sep-21 03:30N 48°48' W 004°08'0 0.6
2019-Sep-21 03:00N 48°48' W 004°08'3 5.3
2019-Sep-21 02:30N 48°51' W 004°07'2 3.8
2019-Sep-21 02:00N 48°52' W 004°06'2 3.4
2019-Sep-21 01:30N 48°54' W 004°04'2 3.6
2019-Sep-21 00:56N 48°56' W 004°03'2 4.1
2019-Sep-21 00:30N 48°57' W 004°01'2 4.1
2019-Sep-21 00:00N 48°59' W 003°59'2 3.8
2019-Sep-20 23:30N 49°00' W 003°58'2 3.8
2019-Sep-20 23:00N 49°02' W 003°56'1 2.7
2019-Sep-20 22:30N 49°03' W 003°58'2 3.6
2019-Sep-20 22:00N 49°03' W 003°56'2 3.8
2019-Sep-20 21:30N 49°02' W 003°58'2 3.7
2019-Sep-20 21:00N 49°03' W 003°55'2 3.7
2019-Sep-20 20:30N 49°02' W 003°58'2 3.0
2019-Sep-20 20:00N 49°03' W 003°56'2 4.2
2019-Sep-20 19:30N 49°04' W 003°53'1 2.1
2019-Sep-20 19:00N 49°03' W 003°54'2 3.5
2019-Sep-20 18:30N 49°03' W 003°57'0 0.9
2019-Sep-20 18:00N 49°03' W 003°56'1 1.2
2019-Sep-20 17:30N 49°03' W 003°57'2 3.0
2019-Sep-20 17:00N 49°04' W 003°55'1 1.3
2019-Sep-20 16:30N 49°03' W 003°56'2 3.5
2019-Sep-20 16:00N 49°02' W 003°58'3 5.7
2019-Sep-20 15:28N 49°02' W 004°03'3 7.1
2019-Sep-20 15:00N 49°01' W 004°08'4 6.5
2019-Sep-20 14:27N 49°01' W 004°13'1 1.5
2019-Sep-20 13:59N 49°01' W 004°14'0 0.9
2019-Sep-20 13:29N 49°00' W 004°14'1 2.6
2019-Sep-20 13:00N 48°60' W 004°15'13 7.8
2019-Sep-20 11:17N 49°12' W 004°22'2 9.1
2019-Sep-20 11:00N 49°15' W 004°23'5 9.2
2019-Sep-20 10:29N 49°20' W 004°24'2 3.5
2019-Sep-20 09:54N 49°21' W 004°25'8 4.8
2019-Sep-20 08:19N 49°29' W 004°22'9 9.1
2019-Sep-20 07:16N 49°38' W 004°22'1 3.9
2019-Sep-20 07:00N 49°39' W 004°23'2 0.2
2019-Sep-19 23:46N 49°39' W 004°25'0 0.3
2019-Sep-19 23:23N 49°39' W 004°25'1 2.6
2019-Sep-19 23:00N 49°39' W 004°24'2 3.3
2019-Sep-19 22:30N 49°39' W 004°26'2 3.4
2019-Sep-19 22:00N 49°39' W 004°23'2 3.6
2019-Sep-19 21:26N 49°38' W 004°27'1 1.2
2019-Sep-19 20:58N 49°38' W 004°26'2 5.3
2019-Sep-19 20:30N 49°40' W 004°22'39 2.1
2019-Sep-19 02:23N 49°48' W 005°21'20 5.5
2019-Sep-18 22:51N 49°41' W 005°49'1 0.6
2019-Sep-18 20:49N 49°41' W 005°48'3 5.4
2019-Sep-18 20:19N 49°40' W 005°52'2 5.2
2019-Sep-18 19:58N 49°41' W 005°49'0 0.5
2019-Sep-18 19:09N 49°40' W 005°49'1 3.3
2019-Sep-18 18:57N 49°40' W 005°50'1 1.3
2019-Sep-18 18:30N 49°40' W 005°49'1 0.8
2019-Sep-18 17:15N 49°41' W 005°48'0 0.9
2019-Sep-18 16:58N 49°40' W 005°48'2 2.7
2019-Sep-18 16:07N 49°40' W 005°51'0 2.9
2019-Sep-18 15:58N 49°40' W 005°52'510.6
2019-Sep-18 15:30N 49°39' W 005°45'510.9
2019-Sep-18 15:00N 49°37' W 005°37'1 2.3
2019-Sep-18 14:30N 49°37' W 005°35'3 2.4
2019-Sep-18 13:15N 49°35' W 005°39'1 6.1
2019-Sep-18 13:00N 49°34' W 005°38'611.8
2019-Sep-18 12:30N 49°30' W 005°31'611.6
2019-Sep-18 12:00N 49°26' W 005°24'4 6.7
2019-Sep-18 11:27N 49°24' W 005°19'0 0.9
2019-Sep-18 11:00N 49°24' W 005°19'23 7.2
2019-Sep-18 07:45N 49°18' W 005°53'3 2.9
2019-Sep-18 06:46N 49°18' W 005°49'1 4.4
2019-Sep-18 06:29N 49°19' W 005°50'1 1.1
2019-Sep-18 05:57N 49°18' W 005°50'1 1.6
2019-Sep-18 05:23N 49°18' W 005°49'0 0.2
2019-Sep-18 04:59N 49°18' W 005°49'3 1.8
2019-Sep-18 03:33N 49°17' W 005°53'0 0.1
2019-Sep-18 03:24N 49°17' W 005°53'1 1.3
2019-Sep-18 03:00N 49°17' W 005°52'3 6.6
2019-Sep-18 02:30N 49°16' W 005°47'3 6.8
2019-Sep-18 02:00N 49°16' W 005°42'4 7.2
2019-Sep-18 01:30N 49°15' W 005°37'4 8.1
2019-Sep-18 01:00N 49°14' W 005°31'5 9.3
2019-Sep-18 00:26N 49°13' W 005°23'1 2.3
2019-Sep-17 23:58N 49°13' W 005°22'2 4.3
2019-Sep-17 23:30N 49°11' W 005°23'2 3.1
2019-Sep-17 22:58N 49°13' W 005°22'1 3.2
2019-Sep-17 22:30N 49°11' W 005°23'2 3.2
2019-Sep-17 21:50N 49°13' W 005°20'2 5.9
2019-Sep-17 21:30N 49°11' W 005°22'1 1.4
2019-Sep-17 21:00N 49°12' W 005°21'2 3.5
2019-Sep-17 20:30N 49°13' W 005°19'2 2.9
2019-Sep-17 19:59N 49°12' W 005°21'0 0.8
2019-Sep-17 19:26N 49°12' W 005°22'0 0.8
2019-Sep-17 18:58N 49°12' W 005°22'1 2.9
2019-Sep-17 18:28N 49°12' W 005°24'1 1.3
2019-Sep-17 17:49N 49°11' W 005°25'1 1.8
2019-Sep-17 17:09N 49°11' W 005°23'0 1.6
2019-Sep-17 16:58N 49°11' W 005°23'2 3.1
2019-Sep-17 16:28N 49°12' W 005°21'6 7.3
2019-Sep-17 15:36N 49°06' W 005°22'110.4
2019-Sep-17 15:30N 49°05' W 005°22'510.1
2019-Sep-17 15:00N 48°60' W 005°22'4 8.7
2019-Sep-17 14:30N 48°56' W 005°22'2 3.3
2019-Sep-17 13:53N 48°54' W 005°22'2 1.8
2019-Sep-17 12:52N 48°53' W 005°24'9 7.9
2019-Sep-17 11:42N 48°50' W 005°38'7 5.4
2019-Sep-17 10:21N 48°48' W 005°48'1 2.4
2019-Sep-17 09:53N 48°49' W 005°47'3 3.8
2019-Sep-17 09:08N 48°49' W 005°43'2310.2
2019-Sep-17 06:51N 48°35' W 005°15'410.4
2019-Sep-17 06:30N 48°33' W 005°10'510.4
2019-Sep-17 06:00N 48°30' W 005°04'2 3.8
2019-Sep-17 05:30N 48°28' W 005°03'0 0.1
2019-Sep-17 05:00N 48°28' W 005°03'1 1.9
2019-Sep-17 04:30N 48°28' W 005°01'0 0.9
2019-Sep-17 04:00N 48°28' W 005°01'0 0.2
2019-Sep-17 03:30N 48°28' W 005°00'0 0.4
2019-Sep-17 03:00N 48°29' W 005°00'1 1.5
2019-Sep-17 02:30N 48°29' W 005°01'1 1.9
2019-Sep-17 02:00N 48°30' W 005°01'1 1.6
2019-Sep-17 01:30N 48°31' W 005°02'1 1.5
2019-Sep-17 01:00N 48°32' W 005°02'1 1.6
2019-Sep-17 00:30N 48°32' W 005°03'1 2.8
2019-Sep-17 00:00N 48°33' W 005°04'1 2.7
2019-Sep-16 23:30N 48°34' W 005°05'1 2.2
2019-Sep-16 23:00N 48°35' W 005°06'1 1.5
2019-Sep-16 22:30N 48°36' W 005°07'1 2.0
2019-Sep-16 22:00N 48°37' W 005°08'2 3.1
2019-Sep-16 21:30N 48°38' W 005°09'2 3.4
2019-Sep-16 21:00N 48°39' W 005°12'2 3.6
2019-Sep-16 20:30N 48°39' W 005°14'1 1.2
2019-Sep-16 20:00N 48°40' W 005°15'0 0.4
2019-Sep-16 19:30N 48°40' W 005°15'0 0.6
2019-Sep-16 19:00N 48°40' W 005°15'3 5.5
2019-Sep-16 18:30N 48°41' W 005°19'2 4.5
2019-Sep-16 18:00N 48°42' W 005°22'1 1.6
2019-Sep-16 17:30N 48°42' W 005°23'1 1.8
2019-Sep-16 17:00N 48°41' W 005°24'0 0.8
2019-Sep-16 16:30N 48°41' W 005°25'0 0.5
2019-Sep-16 16:00N 48°41' W 005°25'1 2.0
2019-Sep-16 15:30N 48°40' W 005°24'1 1.1
2019-Sep-16 15:00N 48°39' W 005°24'0 0.3
2019-Sep-16 14:30N 48°39' W 005°24'1 1.6
2019-Sep-16 14:00N 48°39' W 005°23'2 3.5
2019-Sep-16 13:30N 48°40' W 005°21'3 5.1
2019-Sep-16 13:00N 48°38' W 005°21'5 9.7
2019-Sep-16 12:30N 48°33' W 005°23'5 8.9
2019-Sep-16 12:00N 48°28' W 005°23'4 8.6
2019-Sep-16 11:30N 48°24' W 005°23'3 5.7
2019-Sep-16 11:00N 48°21' W 005°23'1 1.6
2019-Sep-16 10:30N 48°22' W 005°23'0 0.7
2019-Sep-16 10:00N 48°22' W 005°22'4 8.2
2019-Sep-16 09:30N 48°21' W 005°16'5 9.2
2019-Sep-16 09:00N 48°20' W 005°09'5 9.1
2019-Sep-16 08:30N 48°19' W 005°03'5 9.5
2019-Sep-16 08:00N 48°18' W 004°56'510.3
2019-Sep-16 07:30N 48°17' W 004°48'510.9
2019-Sep-16 07:00N 48°19' W 004°40'612.1
2019-Sep-16 06:30N 48°21' W 004°32'3 5.5
2019-Sep-16 06:00N 48°23' W 004°29'0 0.0
2019-Sep-16 05:30N 48°23' W 004°29'0 0.0
2019-Sep-16 05:00N 48°23' W 004°29'0 0.0
2019-Sep-16 04:30N 48°23' W 004°29'0 0.0
2019-Sep-16 04:00N 48°23' W 004°29'0 0.0
2019-Sep-16 03:30N 48°23' W 004°29'0 0.0
2019-Sep-16 03:00N 48°23' W 004°29'0 0.0
2019-Sep-16 02:30N 48°23' W 004°29'0 0.0
2019-Sep-16 02:00N 48°23' W 004°29'0 0.0
2019-Sep-16 01:30N 48°23' W 004°29'0 0.0
2019-Sep-16 01:00N 48°23' W 004°29'0 0.0
2019-Sep-16 00:30N 48°23' W 004°29'0 0.0
2019-Sep-16 00:00N 48°23' W 004°29'0 0.0
2019-Sep-15 23:30N 48°23' W 004°29'0 0.0
2019-Sep-15 23:00N 48°23' W 004°29'0 0.0
2019-Sep-15 22:30N 48°23' W 004°29'0 0.0
2019-Sep-15 22:00N 48°23' W 004°29'0 0.0
2019-Sep-15 21:30N 48°23' W 004°29'0 0.0
2019-Sep-15 21:00N 48°23' W 004°29'0 0.0
2019-Sep-15 20:30N 48°23' W 004°29'0 0.0
2019-Sep-15 20:00N 48°23' W 004°29'0 0.0
2019-Sep-15 19:30N 48°23' W 004°29'0 0.0
2019-Sep-15 19:00N 48°23' W 004°29'0 0.0
2019-Sep-15 18:30N 48°23' W 004°29'0 0.0
2019-Sep-15 18:00N 48°23' W 004°29'0 0.0
2019-Sep-15 17:30N 48°23' W 004°29'0 0.0
2019-Sep-15 17:00N 48°23' W 004°29'0 0.0
2019-Sep-15 16:30N 48°23' W 004°29'0 0.0
2019-Sep-15 16:00N 48°23' W 004°29'0 0.0
2019-Sep-15 15:30N 48°23' W 004°29'0 0.0
2019-Sep-15 15:00N 48°23' W 004°29'0 0.0
2019-Sep-15 14:30N 48°23' W 004°29'0 0.0
2019-Sep-15 14:00N 48°23' W 004°29'0 0.0
2019-Sep-15 13:30N 48°23' W 004°29'0 0.0
2019-Sep-15 13:00N 48°23' W 004°29'0 0.0
2019-Sep-15 12:30N 48°23' W 004°29'0 0.0
2019-Sep-15 12:00N 48°23' W 004°29'0 0.0
2019-Sep-15 11:30N 48°23' W 004°29'0 0.0
2019-Sep-15 11:00N 48°23' W 004°29'0 0.0
2019-Sep-15 10:30N 48°23' W 004°29'0 0.0
2019-Sep-15 10:00N 48°23' W 004°29'0 0.0
2019-Sep-15 09:30N 48°23' W 004°29'0 0.0
2019-Sep-15 09:00N 48°23' W 004°29'0 0.0
2019-Sep-15 08:30N 48°23' W 004°29'0 0.0
2019-Sep-15 08:00N 48°23' W 004°29'0 0.0
2019-Sep-15 07:30N 48°23' W 004°29'0 0.0
2019-Sep-15 07:00N 48°23' W 004°29'0 0.0
2019-Sep-15 06:30N 48°23' W 004°29'0 0.0
2019-Sep-15 06:00N 48°23' W 004°29'0 0.0
2019-Sep-15 05:30N 48°23' W 004°29'0 0.0
2019-Sep-15 05:00N 48°23' W 004°29'0 0.0
2019-Sep-15 04:30N 48°23' W 004°29'0 0.0
2019-Sep-15 04:00N 48°23' W 004°29'0 0.0
2019-Sep-15 03:30N 48°23' W 004°29'0 0.0
2019-Sep-15 03:00N 48°23' W 004°29'0 0.0
2019-Sep-15 02:30N 48°23' W 004°29'0 0.0
2019-Sep-15 02:00N 48°23' W 004°29'0 0.0
2019-Sep-15 01:30N 48°23' W 004°29'0 0.0
2019-Sep-15 01:00N 48°23' W 004°29'0 0.0
2019-Sep-15 00:30N 48°23' W 004°29'0 0.0
2019-Sep-15 00:00N 48°23' W 004°29'0 0.0
2019-Sep-14 23:30N 48°23' W 004°29'0 0.0
2019-Sep-14 23:00N 48°23' W 004°29'0 0.0
2019-Sep-14 22:30N 48°23' W 004°29'0 0.0
2019-Sep-14 22:00N 48°23' W 004°29'0 0.0
2019-Sep-14 21:30N 48°23' W 004°29'0 0.0
2019-Sep-14 21:00N 48°23' W 004°29'0 0.0
2019-Sep-14 20:30N 48°23' W 004°29'0 0.0
2019-Sep-14 20:00N 48°23' W 004°29'0 0.0
2019-Sep-14 19:30N 48°23' W 004°29'0 0.0
2019-Sep-14 19:00N 48°23' W 004°29'0 0.0
2019-Sep-14 18:30N 48°23' W 004°29'0 0.0
2019-Sep-14 18:00N 48°23' W 004°29'0 0.0
2019-Sep-14 17:30N 48°23' W 004°29'0 0.0
2019-Sep-14 17:00N 48°23' W 004°29'0 0.0
2019-Sep-14 16:30N 48°23' W 004°29'0 0.0
2019-Sep-14 16:00N 48°23' W 004°29'0 0.0
2019-Sep-14 15:30N 48°23' W 004°29'0 0.0
2019-Sep-14 15:00N 48°23' W 004°29'0 0.0
2019-Sep-14 14:30N 48°23' W 004°29'0 0.0
2019-Sep-14 14:00N 48°23' W 004°29'0 0.0
2019-Sep-14 13:30N 48°23' W 004°29'0 0.0
2019-Sep-14 13:00N 48°23' W 004°29'0 0.0
2019-Sep-14 12:30N 48°23' W 004°29'0 0.0
2019-Sep-14 12:00N 48°23' W 004°29'0 0.0
2019-Sep-14 11:30N 48°23' W 004°29'0 0.0
2019-Sep-14 11:00N 48°23' W 004°29'0 0.0
2019-Sep-14 10:30N 48°23' W 004°29'0 0.0
2019-Sep-14 10:00N 48°23' W 004°29'0 0.0
2019-Sep-14 09:30N 48°23' W 004°29'0 0.0
2019-Sep-14 09:00N 48°23' W 004°29'0 0.0
2019-Sep-14 08:30N 48°23' W 004°29'0 0.0
2019-Sep-14 08:00N 48°23' W 004°29'0 0.0
2019-Sep-14 07:30N 48°23' W 004°29'0 0.0
2019-Sep-14 07:00N 48°23' W 004°29'0 0.0
2019-Sep-14 06:30N 48°23' W 004°29'0 0.0
2019-Sep-14 06:00N 48°23' W 004°29'0 0.0
2019-Sep-14 05:30N 48°23' W 004°29'0 0.0
2019-Sep-14 05:00N 48°23' W 004°29'0 0.0
2019-Sep-14 04:30N 48°23' W 004°29'0 0.0
2019-Sep-14 04:00N 48°23' W 004°29'0 0.0
2019-Sep-14 03:30N 48°23' W 004°29'0 0.0
2019-Sep-14 03:00N 48°23' W 004°29'0 0.0
2019-Sep-14 02:30N 48°23' W 004°29'0 0.0
2019-Sep-14 02:00N 48°23' W 004°29'0 0.0
2019-Sep-14 01:30N 48°23' W 004°29'0 0.0
2019-Sep-14 01:00N 48°23' W 004°29'0 0.0
2019-Sep-14 00:30N 48°23' W 004°29'0 0.0
2019-Sep-14 00:00N 48°23' W 004°29'0 0.0
2019-Sep-13 23:27N 48°23' W 004°29'0 0.0
2019-Sep-13 23:00N 48°23' W 004°29'0 0.0
2019-Sep-13 22:30N 48°23' W 004°29'0 0.0
2019-Sep-13 22:00N 48°23' W 004°29'0 0.0
2019-Sep-13 21:30N 48°23' W 004°29'0 0.0
2019-Sep-13 21:00N 48°23' W 004°29'0 0.0
2019-Sep-13 20:29N 48°23' W 004°29'0 0.0
2019-Sep-13 19:59N 48°23' W 004°29'0 0.0
2019-Sep-13 19:29N 48°23' W 004°29'0 0.0
2019-Sep-13 18:59N 48°23' W 004°29'0 0.0
2019-Sep-13 18:29N 48°23' W 004°29'0 0.0
2019-Sep-13 17:59N 48°23' W 004°29'0 0.0
2019-Sep-13 17:29N 48°23' W 004°29'0 0.0
2019-Sep-13 16:59N 48°23' W 004°29'0 0.0
2019-Sep-13 16:29N 48°23' W 004°29'0 0.0
2019-Sep-13 15:59N 48°23' W 004°29'0 0.0
2019-Sep-13 15:29N 48°23' W 004°29'0 0.0
2019-Sep-13 14:59N 48°23' W 004°29'0 0.0
2019-Sep-13 14:29N 48°23' W 004°29'0 1.0
2019-Sep-13 14:00N 48°23' W 004°29'2 3.9
2019-Sep-13 13:30N 48°21' W 004°31'5 9.9
2019-Sep-13 13:00N 48°19' W 004°38'612.0
2019-Sep-13 12:30N 48°16' W 004°45'611.6
2019-Sep-13 12:00N 48°10' W 004°45'612.0
2019-Sep-13 11:31N 48°04' W 004°46'612.4
2019-Sep-13 11:00N 47°58' W 004°49'611.4
2019-Sep-13 10:30N 47°54' W 004°54'611.2
2019-Sep-13 10:00N 47°49' W 004°59'611.2
2019-Sep-13 09:29N 47°44' W 005°04'610.6
2019-Sep-13 08:56N 47°40' W 005°10'610.6
2019-Sep-13 08:23N 47°35' W 005°15'810.5
2019-Sep-13 07:35N 47°28' W 005°22'410.5
2019-Sep-13 07:12N 47°25' W 005°26'210.3
2019-Sep-13 06:58N 47°23' W 005°28'510.1
2019-Sep-13 06:31N 47°19' W 005°32'510.2
2019-Sep-13 06:00N 47°15' W 005°36'510.5
2019-Sep-13 05:30N 47°11' W 005°41'611.5
2019-Sep-13 05:00N 47°06' W 005°46'1011.9
2019-Sep-13 04:11N 46°58' W 005°54'2311.3
2019-Sep-13 02:07N 46°39' W 006°15'911.2
2019-Sep-13 01:19N 46°32' W 006°22'511.4
2019-Sep-13 00:53N 46°28' W 006°27'  

Dump ship's entire track history